Time;durP1;ratioP1;P1;durP2;ratioP2;P2;SDS_P1;SDS_P2;PMS_P1;PMS_P2;Temp;Humidity;BMP_temperature;BMP_pressure;BME280_temperature;BME280_humidity;BME280_pressure;Samples;Min_cycle;Max_cycle;Signal;HPM_P1;HPM_P2
2021/06/27 00:01:37;;;;;;;29.77;27.83;;;;;;;;;;4995466;28;20445;-96
2021/06/27 00:04:05;;;;;;;28.93;26.93;;;;;;;;;;4995086;28;20990;-96
2021/06/27 00:06:32;;;;;;;28.40;26.20;;;;;;;;;;4995362;28;20421;-96
2021/06/27 00:09:01;;;;;;;28.80;26.90;;;;;;;;;;4995577;28;20426;-96
2021/06/27 00:11:29;;;;;;;27.67;25.67;;;;;;;;;;4995122;28;20416;-96
2021/06/27 00:13:57;;;;;;;28.53;26.63;;;;;;;;;;4995414;28;20549;-96
2021/06/27 00:16:27;;;;;;;29.10;27.03;;;;;;;;;;4978171;28;20492;-96
2021/06/27 00:18:55;;;;;;;28.23;26.43;;;;;;;;;;4995400;28;20495;-96
2021/06/27 00:21:23;;;;;;;30.27;28.17;;;;;;;;;;4994923;28;20484;-96
2021/06/27 00:23:51;;;;;;;28.50;26.70;;;;;;;;;;4995142;28;20911;-96
2021/06/27 00:26:22;;;;;;;28.73;26.63;;;;;;;;;;4994957;28;20512;-96
2021/06/27 00:28:50;;;;;;;30.13;27.43;;;;;;;;;;4995232;28;20417;-96
2021/06/27 00:31:17;;;;;;;29.40;27.40;;;;;;;;;;4995148;28;20433;-96
2021/06/27 00:33:45;;;;;;;29.80;27.90;;;;;;;;;;4994851;28;20491;-96
2021/06/27 00:36:13;;;;;;;29.40;27.40;;;;;;;;;;4978166;28;20512;-96
2021/06/27 00:38:41;;;;;;;29.17;27.00;;;;;;;;;;4995045;28;20429;-96
2021/06/27 00:41:08;;;;;;;29.43;27.50;;;;;;;;;;4995364;28;20444;-96
2021/06/27 00:43:37;;;;;;;30.23;28.10;;;;;;;;;;4995140;28;20879;-96
2021/06/27 00:46:04;;;;;;;30.50;28.50;;;;;;;;;;4995279;28;20807;-96
2021/06/27 00:48:32;;;;;;;31.57;29.33;;;;;;;;;;4995136;28;20959;-96
2021/06/27 00:51:00;;;;;;;31.53;29.33;;;;;;;;;;4978000;28;20446;-96
2021/06/27 00:53:28;;;;;;;31.07;28.87;;;;;;;;;;4994834;28;20501;-96
2021/06/27 00:55:55;;;;;;;30.90;28.60;;;;;;;;;;4995242;28;20424;-96
2021/06/27 00:58:27;;;;;;;28.63;26.83;;;;;;;;;;4995067;28;20454;-96
2021/06/27 01:00:56;;;;;;;30.70;28.53;;;;;;;;;;4994780;28;20447;-96
2021/06/27 01:03:23;;;;;;;30.23;28.23;;;;;;;;;;4994678;28;20475;-96
2021/06/27 01:05:51;;;;;;;31.83;29.63;;;;;;;;;;4995061;28;20439;-96
2021/06/27 01:08:18;;;;;;;31.43;29.23;;;;;;;;;;4994969;28;20462;-96
2021/06/27 01:10:47;;;;;;;30.90;28.80;;;;;;;;;;4994979;28;20781;-96
2021/06/27 01:13:14;;;;;;;29.43;27.47;;;;;;;;;;4994338;28;20492;-96
2021/06/27 01:15:42;;;;;;;30.63;28.67;;;;;;;;;;4994606;28;20433;-96
2021/06/27 01:18:11;;;;;;;29.80;27.57;;;;;;;;;;4994802;28;20439;-96
2021/06/27 01:20:39;;;;;;;30.10;28.00;;;;;;;;;;4995046;28;20421;-96
2021/06/27 01:23:10;;;;;;;30.10;28.10;;;;;;;;;;4995131;28;20417;-96
2021/06/27 01:25:39;;;;;;;30.30;28.30;;;;;;;;;;4994866;28;20442;-96
2021/06/27 01:28:07;;;;;;;30.17;28.13;;;;;;;;;;4995093;28;20801;-96
2021/06/27 01:30:35;;;;;;;31.00;28.77;;;;;;;;;;4994703;28;20409;-96
2021/06/27 01:33:04;;;;;;;29.67;27.47;;;;;;;;;;4996760;28;20484;-96
2021/06/27 01:35:31;;;;;;;31.40;29.30;;;;;;;;;;4998749;28;20432;-96
2021/06/27 01:38:01;;;;;;;31.30;29.00;;;;;;;;;;4998719;28;20803;-96
2021/06/27 01:40:30;;;;;;;30.37;28.40;;;;;;;;;;4998105;28;20474;-96
2021/06/27 01:43:06;;;;;;;32.20;30.00;;;;;;;;;;4998480;28;20453;-96
2021/06/27 01:45:33;;;;;;;31.53;29.23;;;;;;;;;;4981130;28;20428;-96
2021/06/27 01:48:01;;;;;;;31.53;29.10;;;;;;;;;;4998601;28;20436;-95
2021/06/27 01:50:29;;;;;;;32.20;30.00;;;;;;;;;;4982049;28;20923;-96
2021/06/27 01:52:57;;;;;;;31.47;29.43;;;;;;;;;;4998112;28;20991;-96
2021/06/27 01:55:25;;;;;;;30.40;28.17;;;;;;;;;;4997799;28;20781;-96
2021/06/27 01:57:55;;;;;;;30.53;28.53;;;;;;;;;;4997923;28;20458;-96
2021/06/27 02:00:23;;;;;;;31.40;29.17;;;;;;;;;;4997552;28;20465;-96
2021/06/27 02:02:50;;;;;;;30.67;28.67;;;;;;;;;;4997543;28;20472;-96
2021/06/27 02:05:18;;;;;;;31.50;29.30;;;;;;;;;;4997322;28;20454;-96
2021/06/27 02:07:45;;;;;;;30.60;28.70;;;;;;;;;;4997732;28;20433;-95
2021/06/27 02:10:14;;;;;;;32.40;29.60;;;;;;;;;;4997623;28;20587;-96
2021/06/27 02:12:41;;;;;;;31.90;29.60;;;;;;;;;;4997394;28;20455;-96
2021/06/27 02:15:11;;;;;;;32.13;29.93;;;;;;;;;;4980434;28;20453;-96
2021/06/27 02:17:39;;;;;;;31.20;29.10;;;;;;;;;;4997266;28;20922;-96
2021/06/27 02:20:07;;;;;;;30.53;28.57;;;;;;;;;;4997070;28;20439;-95
2021/06/27 02:22:35;;;;;;;30.47;28.47;;;;;;;;;;4997041;28;20446;-95
2021/06/27 02:25:02;;;;;;;30.30;28.27;;;;;;;;;;4997205;28;20443;-96
2021/06/27 02:27:30;;;;;;;31.70;29.60;;;;;;;;;;4996973;28;20909;-96
2021/06/27 02:29:57;;;;;;;29.90;28.03;;;;;;;;;;4997208;28;20914;-96
2021/06/27 02:32:27;;;;;;;30.87;28.70;;;;;;;;;;4997290;28;20437;-96
2021/06/27 02:34:54;;;;;;;31.77;29.60;;;;;;;;;;4980035;28;20464;-96
2021/06/27 02:37:21;;;;;;;31.13;29.23;;;;;;;;;;4979932;28;20425;-96
2021/06/27 02:39:49;;;;;;;30.93;28.73;;;;;;;;;;4996502;28;20418;-96
2021/06/27 02:42:16;;;;;;;31.30;29.30;;;;;;;;;;4977139;28;20459;-96
2021/06/27 02:44:44;;;;;;;29.50;27.30;;;;;;;;;;4976478;28;20454;-96
2021/06/27 02:47:15;;;;;;;30.30;28.10;;;;;;;;;;4960423;28;20426;-96
2021/06/27 02:49:44;;;;;;;28.83;26.93;;;;;;;;;;4977067;28;20959;-95
2021/06/27 02:52:12;;;;;;;29.23;27.33;;;;;;;;;;4960212;28;20475;-95
2021/06/27 02:54:39;;;;;;;30.27;28.20;;;;;;;;;;4977354;28;20570;-96
2021/06/27 02:57:07;;;;;;;30.73;28.83;;;;;;;;;;4977077;28;20423;-95
2021/06/27 02:59:34;;;;;;;29.90;27.90;;;;;;;;;;4977162;28;20425;-96
2021/06/27 03:02:02;;;;;;;27.63;25.83;;;;;;;;;;4977176;28;20532;-96
2021/06/27 03:04:29;;;;;;;29.43;27.43;;;;;;;;;;4956402;29;20461;-96
2021/06/27 03:06:58;;;;;;;29.27;27.20;;;;;;;;;;4956766;29;20456;-96
2021/06/27 03:09:26;;;;;;;28.70;26.80;;;;;;;;;;4957723;29;20918;-96
2021/06/27 03:11:53;;;;;;;29.60;27.70;;;;;;;;;;4957402;29;20420;-96
2021/06/27 03:14:21;;;;;;;29.30;27.50;;;;;;;;;;4957850;28;20469;-96
2021/06/27 03:16:48;;;;;;;29.47;27.57;;;;;;;;;;4957393;29;20411;-96
2021/06/27 03:19:16;;;;;;;28.47;26.67;;;;;;;;;;4957574;28;20464;-96
2021/06/27 03:21:43;;;;;;;28.43;26.63;;;;;;;;;;4963061;29;20448;-96
2021/06/27 03:24:13;;;;;;;28.10;26.30;;;;;;;;;;4959375;28;20436;-96
2021/06/27 03:26:41;;;;;;;29.50;27.50;;;;;;;;;;4958804;29;20447;-89
2021/06/27 03:29:08;;;;;;;28.80;27.00;;;;;;;;;;4957124;29;20448;-89
2021/06/27 03:31:36;;;;;;;29.73;27.80;;;;;;;;;;4957017;29;20449;-88
2021/06/27 03:34:03;;;;;;;28.53;26.73;;;;;;;;;;4958631;28;20488;-96
2021/06/27 03:36:31;;;;;;;29.03;27.23;;;;;;;;;;4962006;29;20432;-96
2021/06/27 03:39:03;;;;;;;30.30;28.40;;;;;;;;;;4961006;29;20469;-96
2021/06/27 03:41:36;;;;;;;30.47;28.37;;;;;;;;;;4970967;28;20465;-89
2021/06/27 03:44:03;;;;;;;29.50;27.60;;;;;;;;;;4976289;28;20504;-88
2021/06/27 03:46:31;;;;;;;30.33;28.43;;;;;;;;;;4976359;28;20447;-88
2021/06/27 03:48:58;;;;;;;29.57;27.77;;;;;;;;;;4976326;28;20427;-89
2021/06/27 03:51:25;;;;;;;29.13;27.27;;;;;;;;;;4975883;28;20448;-89
2021/06/27 03:53:53;;;;;;;28.27;26.40;;;;;;;;;;4976778;28;20817;-89
2021/06/27 03:56:21;;;;;;;28.43;26.63;;;;;;;;;;4976017;28;20450;-89
2021/06/27 03:58:50;;;;;;;28.03;26.30;;;;;;;;;;4975898;28;20443;-89
2021/06/27 04:01:18;;;;;;;28.77;26.77;;;;;;;;;;4976083;28;20411;-89
2021/06/27 04:03:46;;;;;;;28.27;26.47;;;;;;;;;;4986504;28;20894;-89
2021/06/27 04:06:13;;;;;;;28.70;26.73;;;;;;;;;;4995420;28;20516;-89
2021/06/27 04:08:41;;;;;;;26.10;24.50;;;;;;;;;;4995092;28;20438;-89
2021/06/27 04:11:08;;;;;;;28.90;26.87;;;;;;;;;;4995152;28;20432;-89
2021/06/27 04:13:36;;;;;;;27.67;25.90;;;;;;;;;;4995102;28;20481;-89
2021/06/27 04:16:05;;;;;;;27.73;25.93;;;;;;;;;;4995040;28;20433;-89
2021/06/27 04:18:33;;;;;;;28.33;26.53;;;;;;;;;;4995003;28;20451;-89
2021/06/27 04:21:01;;;;;;;29.40;27.50;;;;;;;;;;4995327;28;20427;-89
2021/06/27 04:23:29;;;;;;;28.03;26.33;;;;;;;;;;4995189;28;20824;-89
2021/06/27 04:25:57;;;;;;;27.67;25.97;;;;;;;;;;4995044;28;20429;-89
2021/06/27 04:28:24;;;;;;;29.10;27.30;;;;;;;;;;4994864;28;20920;-89
2021/06/27 04:30:52;;;;;;;27.00;25.20;;;;;;;;;;4978224;28;20441;-89
2021/06/27 04:33:20;;;;;;;27.53;25.63;;;;;;;;;;4994760;28;20437;-88
2021/06/27 04:35:48;;;;;;;28.47;26.50;;;;;;;;;;4994687;28;20920;-89
2021/06/27 04:38:18;;;;;;;27.57;25.87;;;;;;;;;;4995007;28;20439;-89
2021/06/27 04:40:45;;;;;;;27.10;25.33;;;;;;;;;;4994682;28;20494;-87
2021/06/27 04:43:13;;;;;;;27.60;25.77;;;;;;;;;;4994875;28;20524;-89
2021/06/27 04:45:41;;;;;;;27.43;25.77;;;;;;;;;;4994679;28;20453;-89
2021/06/27 04:48:09;;;;;;;29.80;28.00;;;;;;;;;;4977460;28;20424;-89
2021/06/27 04:50:38;;;;;;;27.30;25.60;;;;;;;;;;4978038;28;20446;-89
2021/06/27 04:53:06;;;;;;;26.73;25.07;;;;;;;;;;4994923;28;20482;-89
2021/06/27 04:55:33;;;;;;;25.60;24.20;;;;;;;;;;4994723;28;20852;-89
2021/06/27 04:58:01;;;;;;;27.27;25.67;;;;;;;;;;4994786;28;20439;-89
2021/06/27 05:00:29;;;;;;;26.90;25.30;;;;;;;;;;4977335;28;20525;-89
2021/06/27 05:02:56;;;;;;;25.50;24.10;;;;;;;;;;4994488;28;20489;-89
2021/06/27 05:05:24;;;;;;;25.93;24.43;;;;;;;;;;4994587;28;20450;-89
2021/06/27 05:07:53;;;;;;;26.03;24.40;;;;;;;;;;4996865;28;20453;-89
2021/06/27 05:10:20;;;;;;;24.93;23.43;;;;;;;;;;4998807;28;20450;-89
2021/06/27 05:12:47;;;;;;;26.33;24.73;;;;;;;;;;4998438;28;20416;-89
2021/06/27 05:15:15;;;;;;;25.80;24.30;;;;;;;;;;4998549;28;20508;-89
2021/06/27 05:17:43;;;;;;;24.83;23.43;;;;;;;;;;4998584;28;20931;-89
2021/06/27 05:20:11;;;;;;;25.27;23.87;;;;;;;;;;4998485;28;20420;-89
2021/06/27 05:22:38;;;;;;;24.50;23.00;;;;;;;;;;4998231;28;20428;-89
2021/06/27 05:25:08;;;;;;;25.10;23.70;;;;;;;;;;4998354;28;20425;-89
2021/06/27 05:27:36;;;;;;;25.50;23.80;;;;;;;;;;4998854;28;20408;-88
2021/06/27 05:30:03;;;;;;;24.30;23.00;;;;;;;;;;4998453;28;20420;-89
2021/06/27 05:32:31;;;;;;;24.93;23.53;;;;;;;;;;4998061;28;20414;-89
2021/06/27 05:34:58;;;;;;;22.83;21.50;;;;;;;;;;4998026;28;20603;-89
2021/06/27 05:37:25;;;;;;;23.30;22.00;;;;;;;;;;4998177;28;20447;-89
2021/06/27 05:39:53;;;;;;;22.37;21.17;;;;;;;;;;4998166;28;20435;-89
2021/06/27 05:42:22;;;;;;;22.73;21.43;;;;;;;;;;4997767;28;20880;-89
2021/06/27 05:44:49;;;;;;;22.77;21.57;;;;;;;;;;4997868;28;20911;-89
2021/06/27 05:47:17;;;;;;;22.90;21.40;;;;;;;;;;4997733;28;20450;-89
2021/06/27 05:49:44;;;;;;;22.50;21.30;;;;;;;;;;4997836;28;20459;-89
2021/06/27 05:52:11;;;;;;;23.80;22.50;;;;;;;;;;4997800;28;20456;-89
2021/06/27 05:54:39;;;;;;;23.90;22.60;;;;;;;;;;4997491;28;20486;-89
2021/06/27 05:57:06;;;;;;;23.10;21.70;;;;;;;;;;4980130;28;20490;-89
2021/06/27 05:59:35;;;;;;;23.77;22.37;;;;;;;;;;4997368;28;20424;-89
2021/06/27 06:02:03;;;;;;;22.33;21.03;;;;;;;;;;4997235;28;20444;-89
2021/06/27 06:04:30;;;;;;;24.00;22.43;;;;;;;;;;4997181;28;20497;-89
2021/06/27 06:06:58;;;;;;;22.53;21.33;;;;;;;;;;5000157;28;20440;-93
2021/06/27 06:09:25;;;;;;;22.20;21.00;;;;;;;;;;4997763;28;20417;-90
2021/06/27 06:11:53;;;;;;;22.57;21.37;;;;;;;;;;4998213;28;20887;-89
2021/06/27 06:14:20;;;;;;;23.33;22.03;;;;;;;;;;4997677;28;20805;-93
2021/06/27 06:16:49;;;;;;;23.90;22.40;;;;;;;;;;4997434;28;20414;-87
2021/06/27 06:19:19;;;;;;;23.43;22.10;;;;;;;;;;4996376;28;20821;-91
2021/06/27 06:21:47;;;;;;;24.50;23.10;;;;;;;;;;4997099;28;20415;-93
2021/06/27 06:24:15;;;;;;;24.57;23.17;;;;;;;;;;4997349;28;20909;-90
2021/06/27 06:26:42;;;;;;;24.50;23.20;;;;;;;;;;4979723;28;20456;-92
2021/06/27 06:29:10;;;;;;;24.60;23.20;;;;;;;;;;4997490;28;20418;-90
2021/06/27 06:31:37;;;;;;;25.10;23.60;;;;;;;;;;4999737;28;20411;-91
2021/06/27 06:34:06;;;;;;;23.20;21.80;;;;;;;;;;4997662;28;20961;-90
2021/06/27 06:36:34;;;;;;;25.17;23.47;;;;;;;;;;4997271;28;20807;-86
2021/06/27 06:39:01;;;;;;;24.40;23.00;;;;;;;;;;4996815;28;20415;-86
2021/06/27 06:41:29;;;;;;;25.20;23.70;;;;;;;;;;4965463;28;20439;-85
2021/06/27 06:43:56;;;;;;;25.47;24.00;;;;;;;;;;4976999;28;20449;-86
2021/06/27 06:46:23;;;;;;;25.27;23.80;;;;;;;;;;4977132;28;20441;-86
2021/06/27 06:48:51;;;;;;;24.20;22.90;;;;;;;;;;4976909;28;20449;-86
2021/06/27 06:51:20;;;;;;;25.40;23.60;;;;;;;;;;4976678;28;20872;-86
2021/06/27 06:53:47;;;;;;;24.90;23.50;;;;;;;;;;4976902;28;20416;-86
2021/06/27 06:56:15;;;;;;;24.07;22.67;;;;;;;;;;4976841;28;20456;-86
2021/06/27 06:58:42;;;;;;;23.70;22.27;;;;;;;;;;4976827;28;20453;-85
2021/06/27 07:01:09;;;;;;;24.60;23.20;;;;;;;;;;4976976;28;20449;-86
2021/06/27 07:03:37;;;;;;;24.00;22.70;;;;;;;;;;4976631;28;20485;-86
2021/06/27 07:06:04;;;;;;;24.53;23.23;;;;;;;;;;4976966;28;20460;-86
2021/06/27 07:08:33;;;;;;;23.50;22.00;;;;;;;;;;4976848;28;20749;-86
2021/06/27 07:11:00;;;;;;;23.83;22.53;;;;;;;;;;4986860;28;20435;-86
2021/06/27 07:13:28;;;;;;;23.50;22.20;;;;;;;;;;4995859;28;20427;-86
2021/06/27 07:15:55;;;;;;;23.60;22.30;;;;;;;;;;4996138;28;20460;-85
2021/06/27 07:18:23;;;;;;;23.67;22.27;;;;;;;;;;4996101;28;20418;-86
2021/06/27 07:20:51;;;;;;;25.30;23.90;;;;;;;;;;4995701;28;20947;-86
2021/06/27 07:23:18;;;;;;;23.73;22.43;;;;;;;;;;4996118;28;20441;-85
2021/06/27 07:25:47;;;;;;;24.40;23.00;;;;;;;;;;4995865;28;20831;-87
2021/06/27 07:28:14;;;;;;;24.73;23.33;;;;;;;;;;4996267;28;20459;-86
2021/06/27 07:30:42;;;;;;;24.73;23.33;;;;;;;;;;4995503;28;20416;-89
2021/06/27 07:33:11;;;;;;;24.40;23.07;;;;;;;;;;4996244;28;20877;-94
2021/06/27 07:35:39;;;;;;;24.03;22.73;;;;;;;;;;4995771;28;20973;-91
2021/06/27 07:38:06;;;;;;;24.80;23.40;;;;;;;;;;4996180;28;20419;-86
2021/06/27 07:40:33;;;;;;;25.00;23.40;;;;;;;;;;4995549;28;20452;-86
2021/06/27 07:43:02;;;;;;;25.03;23.63;;;;;;;;;;4995504;28;20424;-87
2021/06/27 07:45:30;;;;;;;25.13;23.73;;;;;;;;;;4995736;28;20419;-87
2021/06/27 07:47:57;;;;;;;23.40;22.10;;;;;;;;;;4995808;28;20748;-87
2021/06/27 07:50:24;;;;;;;24.10;22.77;;;;;;;;;;4995450;28;20528;-87
2021/06/27 07:52:52;;;;;;;23.80;22.50;;;;;;;;;;4995384;28;20992;-88
2021/06/27 07:55:19;;;;;;;24.20;22.70;;;;;;;;;;4995518;28;20801;-88
2021/06/27 07:57:46;;;;;;;23.63;22.23;;;;;;;;;;4995830;28;20434;-88
2021/06/27 08:00:16;;;;;;;23.03;21.73;;;;;;;;;;4995251;28;20403;-87
2021/06/27 08:02:44;;;;;;;24.40;22.90;;;;;;;;;;4995073;28;20935;-87
2021/06/27 08:05:12;;;;;;;24.07;22.70;;;;;;;;;;4995472;28;20440;-87
2021/06/27 08:07:39;;;;;;;24.07;22.67;;;;;;;;;;4995336;28;20448;-87
2021/06/27 08:10:08;;;;;;;24.27;22.80;;;;;;;;;;4992291;28;20432;-88
2021/06/27 08:12:36;;;;;;;23.53;22.13;;;;;;;;;;4975686;28;20509;-87
2021/06/27 08:15:03;;;;;;;24.23;22.80;;;;;;;;;;4975765;28;20489;-86
2021/06/27 08:17:32;;;;;;;24.33;22.93;;;;;;;;;;4976121;28;20433;-86
2021/06/27 08:20:00;;;;;;;24.20;22.80;;;;;;;;;;4975549;28;20452;-87
2021/06/27 08:22:27;;;;;;;24.17;22.77;;;;;;;;;;4975519;28;20925;-88
2021/06/27 08:24:54;;;;;;;24.23;22.73;;;;;;;;;;4975427;28;20453;-87
2021/06/27 08:27:22;;;;;;;23.83;22.50;;;;;;;;;;4975395;28;20468;-87
2021/06/27 08:29:49;;;;;;;23.30;22.00;;;;;;;;;;4975382;28;20457;-87
2021/06/27 08:32:16;;;;;;;24.73;23.20;;;;;;;;;;4975452;28;20441;-88
2021/06/27 08:34:45;;;;;;;24.70;23.20;;;;;;;;;;4981585;28;20452;-87
2021/06/27 08:37:13;;;;;;;24.60;23.00;;;;;;;;;;4994425;28;20464;-86
2021/06/27 08:39:41;;;;;;;24.07;22.23;;;;;;;;;;4994477;28;20440;-86
2021/06/27 08:42:09;;;;;;;25.30;23.80;;;;;;;;;;4993852;28;20456;-86
2021/06/27 08:44:36;;;;;;;24.97;23.40;;;;;;;;;;4994471;28;20439;-86
2021/06/27 08:47:04;;;;;;;25.73;24.03;;;;;;;;;;4994152;28;20950;-86
2021/06/27 08:49:33;;;;;;;24.67;23.17;;;;;;;;;;4994052;28;20483;-87
2021/06/27 08:52:02;;;;;;;25.37;23.97;;;;;;;;;;4994435;28;20493;-86
2021/06/27 08:54:29;;;;;;;25.10;23.70;;;;;;;;;;4994364;28;20419;-87
2021/06/27 08:56:57;;;;;;;25.13;23.73;;;;;;;;;;4993977;28;20576;-86
2021/06/27 08:59:24;;;;;;;24.10;22.80;;;;;;;;;;4994168;28;20477;-87
2021/06/27 09:01:52;;;;;;;23.80;22.40;;;;;;;;;;4996209;28;20437;-94
2021/06/27 09:04:19;;;;;;;25.20;23.70;;;;;;;;;;4994188;28;20471;-88
2021/06/27 09:06:47;;;;;;;24.70;23.30;;;;;;;;;;4994746;28;20471;-89
2021/06/27 09:09:17;;;;;;;24.97;23.47;;;;;;;;;;4994627;28;20414;-86
2021/06/27 09:11:58;;;;;;;24.23;22.83;;;;;;;;;;4994862;28;20809;-88
2021/06/27 09:14:29;;;;;;;26.40;24.80;;;;;;;;;;4994915;28;20461;-88
2021/06/27 09:17:10;;;;;;;25.23;23.83;;;;;;;;;;4994408;28;20467;-88
2021/06/27 09:19:57;;;;;;;25.30;23.80;;;;;;;;;;4994193;28;20827;-88
2021/06/27 09:22:26;;;;;;;26.40;24.40;;;;;;;;;;4994950;28;20453;-87
2021/06/27 09:24:56;;;;;;;24.90;23.30;;;;;;;;;;4994516;28;20448;-87
2021/06/27 09:27:24;;;;;;;25.70;24.20;;;;;;;;;;4994293;28;20408;-89
2021/06/27 09:29:53;;;;;;;25.27;23.67;;;;;;;;;;4994622;28;20445;-88
2021/06/27 09:32:21;;;;;;;24.90;23.20;;;;;;;;;;4994692;28;20508;-88
2021/06/27 09:34:49;;;;;;;26.33;24.63;;;;;;;;;;4994039;28;20525;-88
2021/06/27 09:37:17;;;;;;;26.23;24.63;;;;;;;;;;4994236;28;20445;-88
2021/06/27 09:39:59;;;;;;;25.20;23.70;;;;;;;;;;4994475;28;20411;-88
2021/06/27 09:42:26;;;;;;;26.83;25.13;;;;;;;;;;4975073;28;20450;-89
2021/06/27 09:45:01;;;;;;;26.67;25.07;;;;;;;;;;4975100;28;20416;-88
2021/06/27 09:47:29;;;;;;;26.17;24.57;;;;;;;;;;4974760;28;20408;-88
2021/06/27 09:49:56;;;;;;;26.33;24.73;;;;;;;;;;4974776;28;20435;-88
2021/06/27 09:52:35;;;;;;;27.10;25.40;;;;;;;;;;4974675;28;20536;-88
2021/06/27 09:55:08;;;;;;;26.03;24.50;;;;;;;;;;4978252;28;20446;-88
2021/06/27 09:57:36;;;;;;;25.67;24.07;;;;;;;;;;4978184;28;20416;-88
2021/06/27 10:00:03;;;;;;;24.80;23.40;;;;;;;;;;4978214;28;20457;-88
2021/06/27 10:02:31;;;;;;;25.97;24.27;;;;;;;;;;4978027;28;20440;-88
2021/06/27 10:04:58;;;;;;;25.80;24.23;;;;;;;;;;4961045;28;20908;-88
2021/06/27 10:07:38;;;;;;;26.47;24.87;;;;;;;;;;4978026;28;20449;-88
2021/06/27 10:10:19;;;;;;;26.43;24.93;;;;;;;;;;4981024;28;20458;-88
2021/06/27 10:12:47;;;;;;;26.40;24.80;;;;;;;;;;4997525;28;20412;-88
2021/06/27 10:15:15;;;;;;;26.00;24.40;;;;;;;;;;4997228;28;20424;-88
2021/06/27 10:17:43;;;;;;;26.13;24.63;;;;;;;;;;4996956;28;20412;-88
2021/06/27 10:20:11;;;;;;;25.93;24.37;;;;;;;;;;4997224;28;20461;-88
2021/06/27 10:22:39;;;;;;;24.90;23.40;;;;;;;;;;4980484;28;20508;-88
2021/06/27 10:25:07;;;;;;;25.80;24.20;;;;;;;;;;4997350;28;20460;-88
2021/06/27 10:27:36;;;;;;;26.20;24.50;;;;;;;;;;4997341;28;20842;-89
2021/06/27 10:30:05;;;;;;;26.83;25.20;;;;;;;;;;4997227;28;20529;-88
2021/06/27 10:32:33;;;;;;;27.27;25.57;;;;;;;;;;4997271;28;20438;-88
2021/06/27 10:35:07;;;;;;;26.60;25.00;;;;;;;;;;4997064;28;20756;-88
2021/06/27 10:37:37;;;;;;;26.50;24.80;;;;;;;;;;4996890;28;20430;-88
2021/06/27 10:40:05;;;;;;;25.93;24.43;;;;;;;;;;4979413;28;20428;-88
2021/06/27 10:42:53;;;;;;;26.53;24.93;;;;;;;;;;4996817;28;20430;-88
2021/06/27 10:45:23;;;;;;;25.80;24.30;;;;;;;;;;4996657;28;20420;-88
2021/06/27 10:47:51;;;;;;;25.60;24.10;;;;;;;;;;4996496;28;21003;-88
2021/06/27 10:50:19;;;;;;;25.73;24.20;;;;;;;;;;4996775;28;20927;-88
2021/06/27 10:53:00;;;;;;;25.50;24.07;;;;;;;;;;4996743;28;20459;-88
2021/06/27 10:55:28;;;;;;;25.53;24.03;;;;;;;;;;4996263;28;20457;-88
2021/06/27 10:57:59;;;;;;;25.23;23.73;;;;;;;;;;4996435;28;20420;-88
2021/06/27 11:00:29;;;;;;;26.77;25.13;;;;;;;;;;4996632;28;20504;-88
2021/06/27 11:03:17;;;;;;;26.80;25.10;;;;;;;;;;4996450;28;20834;-88
2021/06/27 11:05:47;;;;;;;27.17;25.27;;;;;;;;;;4995442;28;20424;-88
2021/06/27 11:08:15;;;;;;;25.83;24.33;;;;;;;;;;4996108;28;20449;-88
2021/06/27 11:10:44;;;;;;;26.67;24.37;;;;;;;;;;4971087;28;20464;-88
2021/06/27 11:13:16;;;;;;;25.80;24.30;;;;;;;;;;4976957;28;20449;-89
2021/06/27 11:16:03;;;;;;;27.63;25.93;;;;;;;;;;4976816;28;20957;-88
2021/06/27 11:18:45;;;;;;;26.33;24.63;;;;;;;;;;4976640;28;20433;-88
2021/06/27 11:21:21;;;;;;;25.90;24.20;;;;;;;;;;4976574;28;20409;-87
2021/06/27 11:23:51;;;;;;;25.60;24.00;;;;;;;;;;4976825;28;20416;-87
2021/06/27 11:26:33;;;;;;;24.53;23.13;;;;;;;;;;4976666;28;20424;-89
2021/06/27 11:29:00;;;;;;;25.70;24.17;;;;;;;;;;4975858;28;20425;-89
2021/06/27 11:31:29;;;;;;;25.87;24.37;;;;;;;;;;4976416;28;20486;-88
2021/06/27 11:34:14;;;;;;;24.73;23.23;;;;;;;;;;4976648;28;20457;-89
2021/06/27 11:36:43;;;;;;;25.97;24.47;;;;;;;;;;4976319;28;20471;-89
2021/06/27 11:39:31;;;;;;;24.63;23.20;;;;;;;;;;4976683;28;20444;-89
2021/06/27 11:41:58;;;;;;;26.83;25.03;;;;;;;;;;4975972;28;20465;-88
2021/06/27 11:44:25;;;;;;;26.83;24.93;;;;;;;;;;4976216;28;20438;-89
2021/06/27 11:46:53;;;;;;;25.10;23.50;;;;;;;;;;4976870;28;20439;-88
2021/06/27 11:49:30;;;;;;;25.37;23.77;;;;;;;;;;4976410;28;20432;-89
2021/06/27 11:52:00;;;;;;;25.93;24.43;;;;;;;;;;4975952;28;20888;-88
2021/06/27 11:54:29;;;;;;;25.67;24.07;;;;;;;;;;4980046;28;20465;-87
2021/06/27 11:57:01;;;;;;;25.10;23.50;;;;;;;;;;4995304;28;20492;-88
2021/06/27 11:59:30;;;;;;;25.63;24.13;;;;;;;;;;4977779;28;20412;-86
2021/06/27 12:02:10;;;;;;;25.17;23.67;;;;;;;;;;4994868;28;20776;-86
2021/06/27 12:04:38;;;;;;;26.10;24.53;;;;;;;;;;4970787;28;20436;-87
2021/06/27 12:07:25;;;;;;;26.70;24.90;;;;;;;;;;4975377;28;20461;-86
2021/06/27 12:09:52;;;;;;;25.83;24.33;;;;;;;;;;4974980;28;20434;-87
2021/06/27 12:12:33;;;;;;;24.80;23.30;;;;;;;;;;4955594;29;20422;-86
2021/06/27 12:15:00;;;;;;;25.07;23.57;;;;;;;;;;4956621;29;20430;-87
2021/06/27 12:17:28;;;;;;;25.50;23.90;;;;;;;;;;4954691;28;20500;-87
2021/06/27 12:19:55;;;;;;;25.07;23.57;;;;;;;;;;4956639;28;20447;-86
2021/06/27 12:22:24;;;;;;;24.83;23.43;;;;;;;;;;4955627;29;20931;-86
2021/06/27 12:24:51;;;;;;;26.10;24.30;;;;;;;;;;4956554;28;20450;-87
2021/06/27 12:27:19;;;;;;;25.80;24.20;;;;;;;;;;4956513;28;20410;-87
2021/06/27 12:29:52;;;;;;;24.80;23.40;;;;;;;;;;4956498;29;20453;-86
2021/06/27 12:32:20;;;;;;;25.50;24.00;;;;;;;;;;4956680;28;20899;-87
2021/06/27 12:34:48;;;;;;;25.40;23.90;;;;;;;;;;4956114;28;20424;-87
2021/06/27 12:37:15;;;;;;;25.60;24.00;;;;;;;;;;4954911;29;20822;-86
2021/06/27 12:39:44;;;;;;;25.73;24.23;;;;;;;;;;4956374;28;20785;-86
2021/06/27 12:42:14;;;;;;;27.10;25.50;;;;;;;;;;4956362;28;20422;-86
2021/06/27 12:44:42;;;;;;;25.07;23.57;;;;;;;;;;4956302;29;20426;-87
2021/06/27 12:47:09;;;;;;;26.27;24.47;;;;;;;;;;4956246;29;20411;-86
2021/06/27 12:49:37;;;;;;;25.97;24.47;;;;;;;;;;4955273;29;20434;-87
2021/06/27 12:52:05;;;;;;;25.10;23.60;;;;;;;;;;4955963;29;20494;-87
2021/06/27 12:54:34;;;;;;;26.03;24.43;;;;;;;;;;4956063;29;20923;-87
2021/06/27 12:57:17;;;;;;;25.57;23.97;;;;;;;;;;4955811;29;21031;-87
2021/06/27 12:59:50;;;;;;;25.47;23.87;;;;;;;;;;4956493;29;20471;-90
2021/06/27 13:02:19;;;;;;;25.50;24.00;;;;;;;;;;4965135;28;20479;-88
2021/06/27 13:04:54;;;;;;;25.87;24.33;;;;;;;;;;4993257;28;20513;-88
2021/06/27 13:07:24;;;;;;;24.43;23.03;;;;;;;;;;4994863;28;20417;-86
2021/06/27 13:10:00;;;;;;;26.10;24.30;;;;;;;;;;4995319;28;20433;-87
2021/06/27 13:12:27;;;;;;;25.60;24.10;;;;;;;;;;4994494;28;20458;-86
2021/06/27 13:15:09;;;;;;;25.20;23.50;;;;;;;;;;4994560;28;20436;-87
2021/06/27 13:17:42;;;;;;;24.93;23.43;;;;;;;;;;4994563;28;20465;-87
2021/06/27 13:20:13;;;;;;;24.97;23.50;;;;;;;;;;4994653;28;20529;-86
2021/06/27 13:23:01;;;;;;;25.30;23.80;;;;;;;;;;4994655;28;20448;-87
2021/06/27 13:25:33;;;;;;;25.83;24.13;;;;;;;;;;4994776;28;20446;-88
2021/06/27 13:28:00;;;;;;;24.70;23.20;;;;;;;;;;4995286;28;20438;-86
2021/06/27 13:30:30;;;;;;;26.00;24.40;;;;;;;;;;4998363;28;20413;-87
2021/06/27 13:33:06;;;;;;;25.33;23.67;;;;;;;;;;4998277;28;20427;-87
2021/06/27 13:35:35;;;;;;;25.77;24.03;;;;;;;;;;4981117;28;20544;-86
2021/06/27 13:38:04;;;;;;;25.03;23.43;;;;;;;;;;4998120;28;20978;-86
2021/06/27 13:40:32;;;;;;;25.47;23.97;;;;;;;;;;4998300;28;20439;-87
2021/06/27 13:42:59;;;;;;;25.23;23.73;;;;;;;;;;4998307;28;20931;-86
2021/06/27 13:45:29;;;;;;;25.77;24.27;;;;;;;;;;4997905;28;20426;-86
2021/06/27 13:47:56;;;;;;;25.70;24.10;;;;;;;;;;4998072;28;20413;-86
2021/06/27 13:50:25;;;;;;;25.57;24.03;;;;;;;;;;4980500;28;20482;-86
2021/06/27 13:52:52;;;;;;;24.63;23.23;;;;;;;;;;4980912;28;20471;-87
2021/06/27 13:55:21;;;;;;;24.53;23.10;;;;;;;;;;4997846;28;20411;-86
2021/06/27 13:57:49;;;;;;;24.77;23.33;;;;;;;;;;4997878;28;20463;-87
2021/06/27 14:00:17;;;;;;;24.93;23.43;;;;;;;;;;4997819;28;20414;-88
2021/06/27 14:02:46;;;;;;;25.20;23.70;;;;;;;;;;4983318;28;20899;-96
2021/06/27 14:05:16;;;;;;;25.40;23.90;;;;;;;;;;4983236;28;20778;-94
2021/06/27 14:07:43;;;;;;;24.73;23.33;;;;;;;;;;4998871;28;20418;-86
2021/06/27 14:10:12;;;;;;;25.83;24.33;;;;;;;;;;4997661;28;20432;-87
2021/06/27 14:12:39;;;;;;;26.17;24.57;;;;;;;;;;4997692;28;20402;-88
2021/06/27 14:15:07;;;;;;;25.30;23.80;;;;;;;;;;4997680;28;20427;-88
2021/06/27 14:17:35;;;;;;;26.00;24.50;;;;;;;;;;4997576;28;20811;-88
2021/06/27 14:20:04;;;;;;;26.43;24.93;;;;;;;;;;4997688;28;20430;-88
2021/06/27 14:22:31;;;;;;;27.27;25.57;;;;;;;;;;4997215;28;20421;-89
2021/06/27 14:24:59;;;;;;;25.27;23.77;;;;;;;;;;4997330;28;20815;-87
2021/06/27 14:27:26;;;;;;;26.50;25.00;;;;;;;;;;4997293;28;20457;-88